| time (UTC) | temp C | wind direction | speed KPH | gust KPH | rain 1hr cm | rain 24hr cm | rain mn cm | humidity % | barometer mb |
| 20260509045115 | 12 | 231 | 0.0 | 1.6 | 0.00 | 0.00 | 0.00 | 95 | 982.1 |
| 20260509044615 | 12 | 246 | 0.0 | 1.6 | 0.00 | 0.00 | 0.00 | 95 | 982.1 |
| 20260509044115 | 12 | 146 | 0.0 | 0.0 | 0.00 | 0.00 | 0.00 | 95 | 982.1 |
| 20260509043115 | 12 | 161 | 3.2 | 4.8 | 0.00 | 0.00 | 0.00 | 94 | 982.3 |
| 20260509042115 | 12 | 291 | 0.0 | 1.6 | 0.00 | 0.00 | 0.00 | 94 | 982.3 |
| 20260509041615 | 12 | 209 | 0.0 | 0.0 | 0.00 | 0.00 | 0.00 | 93 | 982.3 |
| 20260509041114 | 12 | 340 | 0.0 | 0.0 | 0.00 | 0.00 | 0.00 | 93 | 982.3 |
| 20260509040615 | 12 | 315 | 0.0 | 1.6 | 0.00 | 0.00 | 0.00 | 93 | 982.4 |
| 20260509040115 | 12 | 329 | 0.0 | 1.6 | 0.00 | 0.00 | 0.00 | 93 | 982.5 |
| 20260509035615 | 12 | 251 | 0.0 | 1.6 | 0.00 | 0.00 | 0.00 | 93 | 982.5 |
| 20260509035115 | 12 | 319 | 0.0 | 1.6 | 0.00 | 0.00 | 0.00 | 92 | 982.5 |
| 20260509034615 | 12 | 256 | 0.0 | 1.6 | 0.00 | 0.00 | 0.00 | 92 | 982.5 |
| 20260509034115 | 12 | 228 | 0.0 | 1.6 | 0.00 | 0.00 | 0.00 | 92 | 982.5 |
| 20260509033615 | 12 | 228 | 0.0 | 1.6 | 0.00 | 0.00 | 0.00 | 91 | 982.5 |
| 20260509033115 | 12 | 175 | 0.0 | 1.6 | 0.00 | 0.00 | 0.00 | 91 | 982.6 |
| 20260509032614 | 13 | 59 | 0.0 | 3.2 | 0.00 | 0.00 | 0.00 | 91 | 982.6 |
| 20260509032115 | 13 | 213 | 0.0 | 0.0 | 0.00 | 0.00 | 0.00 | 90 | 982.6 |
| 20260509031615 | 13 | 213 | 0.0 | 0.0 | 0.00 | 0.00 | 0.00 | 89 | 982.6 |
| 20260509031115 | 13 | 191 | 0.0 | 0.0 | 0.00 | 0.00 | 0.00 | 89 | 982.7 |
| 20260509030615 | 13 | 216 | 0.0 | 1.6 | 0.00 | 0.00 | 0.00 | 89 | 982.8 |
| 20260509030115 | 13 | 254 | 0.0 | 3.2 | 0.00 | 0.00 | 0.00 | 88 | 982.9 |
| 20260509025615 | 13 | 175 | 0.0 | 3.2 | 0.00 | 0.00 | 0.00 | 88 | 982.9 |
| 20260509024115 | 13 | 321 | 0.0 | 4.8 | 0.00 | 0.00 | 0.00 | 86 | 982.9 |
| 20260509023615 | 13 | 166 | 0.0 | 1.6 | 0.00 | 0.00 | 0.00 | 86 | 983.0 |
| 20260509023115 | 13 | 182 | 0.0 | 3.2 | 0.00 | 0.00 | 0.00 | 85 | 983.1 |
| 20260509022615 | 13 | 341 | 0.0 | 4.8 | 0.00 | 0.00 | 0.00 | 85 | 983.0 |
| 20260509022115 | 13 | 258 | 0.0 | 1.6 | 0.00 | 0.00 | 0.00 | 84 | 983.0 |
| 20260509021115 | 13 | 346 | 0.0 | 3.2 | 0.00 | 0.00 | 0.00 | 84 | 983.0 |
| 20260509020614 | 13 | 205 | 1.6 | 4.8 | 0.00 | 0.00 | 0.00 | 84 | 983.1 |
| 20260509020114 | 13 | 209 | 0.0 | 3.2 | 0.00 | 0.00 | 0.00 | 84 | 983.0 |
| 20260509015615 | 13 | 315 | 1.6 | 3.2 | 0.00 | 0.00 | 0.00 | 83 | 982.8 |
| 20260509015115 | 14 | 353 | 0.0 | 1.6 | 0.00 | 0.00 | 0.00 | 82 | 982.8 |
| 20260509014616 | 14 | 319 | 0.0 | 1.6 | 0.00 | 0.00 | 0.00 | 81 | 982.8 |
| 20260509014115 | 14 | 266 | 0.0 | 0.0 | 0.00 | 0.00 | 0.00 | 81 | 982.6 |
| 20260509013615 | 14 | 332 | 0.0 | 0.0 | 0.00 | 0.00 | 0.00 | 79 | 982.5 |
| 20260509013115 | 14 | 332 | 0.0 | 3.2 | 0.00 | 0.00 | 0.00 | 78 | 982.3 |
| 20260509012115 | 14 | 49 | 0.0 | 4.8 | 0.00 | 0.00 | 0.00 | 78 | 982.1 |
| 20260509011615 | 15 | 83 | 0.0 | 1.6 | 0.00 | 0.00 | 0.00 | 77 | 982.0 |
| 20260509011115 | 15 | 140 | 1.6 | 4.8 | 0.00 | 0.00 | 0.00 | 76 | 982.1 |
| 20260509010615 | 15 | 255 | 0.0 | 1.6 | 0.00 | 0.00 | 0.00 | 75 | 982.1 |
| 20260509010115 | 15 | 233 | 0.0 | 4.8 | 0.00 | 0.00 | 0.00 | 75 | 982.1 |
| 20260509005615 | 15 | 7 | 0.0 | 3.2 | 0.00 | 0.00 | 0.00 | 72 | 982.1 |
| 20260509005115 | 15 | 322 | 3.2 | 4.8 | 0.00 | 0.00 | 0.00 | 70 | 982.0 |
| 20260509004615 | 15 | 345 | 1.6 | 4.8 | 0.00 | 0.00 | 0.00 | 69 | 982.1 |
| 20260509004114 | 15 | 26 | 0.0 | 3.2 | 0.00 | 0.00 | 0.00 | 68 | 982.1 |
| 20260509003614 | 16 | 319 | 0.0 | 0.0 | 0.00 | 0.00 | 0.00 | 69 | 982.1 |
| 20260509003115 | 16 | 274 | 0.0 | 0.0 | 0.00 | 0.00 | 0.00 | 71 | 981.9 |
| 20260509002614 | 16 | 283 | 0.0 | 0.0 | 0.00 | 0.00 | 0.00 | 64 | 981.7 |
| 20260509002114 | 16 | 336 | 0.0 | 0.0 | 0.00 | 0.00 | 0.00 | 60 | 981.7 |
| 20260509001615 | 16 | 336 | 0.0 | 0.0 | 0.00 | 0.00 | 0.00 | 59 | 981.7 |
| 20260509001115 | 16 | 336 | 0.0 | 0.0 | 0.00 | 0.00 | 0.00 | 60 | 981.8 |
| 20260509000615 | 16 | 336 | 0.0 | 0.0 | 0.00 | 0.00 | 0.00 | 60 | 981.9 |
| 20260509000115 | 16 | 336 | 0.0 | 1.6 | 0.00 | 0.00 | 0.00 | 60 | 981.9 |
| 20260508235615 | 16 | 256 | 0.0 | 0.0 | 0.00 | 0.00 | 0.00 | 61 | 981.9 |
| 20260508235115 | 17 | 256 | 0.0 | 0.0 | 0.00 | 0.00 | 0.00 | 65 | 982.0 |
| 20260508234615 | 17 | 256 | 0.0 | 0.0 | 0.00 | 0.00 | 0.00 | 66 | 981.9 |
| 20260508234115 | 17 | 256 | 0.0 | 0.0 | 0.00 | 0.00 | 0.00 | 57 | 981.8 |
| 20260508233615 | 17 | 256 | 0.0 | 0.0 | 0.00 | 0.00 | 0.00 | 57 | 981.7 |
| 20260508233114 | 17 | 256 | 0.0 | 0.0 | 0.00 | 0.00 | 0.00 | 56 | 981.5 |
| 20260508232615 | 17 | 256 | 0.0 | 0.0 | 0.00 | 0.00 | 0.00 | 56 | 981.6 |
| 20260508232115 | 17 | 237 | 0.0 | 0.0 | 0.00 | 0.00 | 0.00 | 58 | 981.6 |
| 20260508231615 | 17 | 213 | 0.0 | 0.0 | 0.00 | 0.00 | 0.00 | 59 | 981.6 |
| 20260508231115 | 17 | 213 | 0.0 | 0.0 | 0.00 | 0.00 | 0.00 | 58 | 981.6 |
| 20260508230615 | 17 | 213 | 0.0 | 3.2 | 0.00 | 0.00 | 0.00 | 57 | 981.8 |
| 20260508230114 | 17 | 171 | 0.0 | 3.2 | 0.00 | 0.00 | 0.00 | 60 | 981.8 |
| 20260508225615 | 17 | 334 | 0.0 | 1.6 | 0.00 | 0.00 | 0.00 | 58 | 981.9 |
| 20260508225115 | 17 | 218 | 1.6 | 9.7 | 0.00 | 0.00 | 0.00 | 48 | 981.8 |
| 20260508172615 | 19 | 227 | 8.0 | 19.3 | 0.00 | 0.00 | 0.00 | 46 | 984.5 |
| 20260508171616 | 19 | 221 | 3.2 | 9.7 | 0.00 | 0.00 | 0.00 | 48 | 984.6 |
| 20260508171115 | 19 | 237 | 3.2 | 9.7 | 0.00 | 0.00 | 0.00 | 47 | 984.7 |
| 20260508170116 | 19 | 196 | 4.8 | 12.9 | 0.00 | 0.00 | 0.00 | 47 | 985.0 |
| 20260508165615 | 19 | 251 | 3.2 | 14.5 | 0.00 | 0.00 | 0.00 | 47 | 984.9 |
| 20260508165115 | 19 | 238 | 4.8 | 12.9 | 0.00 | 0.00 | 0.00 | 47 | 985.0 |
| 20260508164116 | 20 | 200 | 9.7 | 20.9 | 0.00 | 0.00 | 0.00 | 47 | 985.4 |
| 20260508163615 | 20 | 177 | 3.2 | 14.5 | 0.00 | 0.00 | 0.00 | 48 | 985.4 |
| 20260508163115 | 20 | 172 | 9.7 | 14.5 | 0.00 | 0.00 | 0.00 | 46 | 985.2 |
| 20260508162615 | 20 | 175 | 6.4 | 11.3 | 0.00 | 0.00 | 0.00 | 46 | 985.3 |
| 20260508161615 | 20 | 181 | 8.0 | 12.9 | 0.00 | 0.00 | 0.00 | 46 | 985.4 |
| 20260508161116 | 20 | 204 | 6.4 | 14.5 | 0.00 | 0.00 | 0.00 | 48 | 985.5 |
| 20260508160615 | 20 | 183 | 6.4 | 14.5 | 0.00 | 0.00 | 0.00 | 46 | 985.4 |
| 20260508160115 | 20 | 251 | 4.8 | 11.3 | 0.00 | 0.00 | 0.00 | 48 | 985.3 |
| 20260508155115 | 19 | 214 | 4.8 | 16.1 | 0.00 | 0.00 | 0.00 | 48 | 985.3 |
| 20260508154615 | 19 | 183 | 4.8 | 11.3 | 0.00 | 0.00 | 0.00 | 48 | 985.4 |
| 20260508152615 | 18 | 231 | 6.4 | 12.9 | 0.00 | 0.00 | 0.00 | 50 | 985.5 |
| 20260508152115 | 18 | 184 | 4.8 | 12.9 | 0.00 | 0.00 | 0.00 | 48 | 985.6 |
| 20260508151615 | 18 | 286 | 4.8 | 16.1 | 0.00 | 0.00 | 0.00 | 48 | 985.8 |
| 20260508151116 | 18 | 214 | 4.8 | 11.3 | 0.00 | 0.00 | 0.00 | 49 | 985.7 |
| 20260508145615 | 17 | 206 | 4.8 | 12.9 | 0.00 | 0.00 | 0.00 | 50 | 985.8 |
| 20260508145115 | 17 | 245 | 4.8 | 12.9 | 0.00 | 0.00 | 0.00 | 49 | 985.7 |
| 20260508144616 | 17 | 241 | 3.2 | 12.9 | 0.00 | 0.00 | 0.00 | 51 | 985.7 |
| 20260508143115 | 17 | 206 | 3.2 | 9.7 | 0.00 | 0.00 | 0.00 | 49 | 985.8 |
| 20260508142615 | 17 | 209 | 3.2 | 9.7 | 0.00 | 0.00 | 0.00 | 51 | 985.7 |
| 20260508142115 | 16 | 212 | 6.4 | 14.5 | 0.00 | 0.00 | 0.00 | 52 | 986.2 |
| 20260508141615 | 16 | 202 | 4.8 | 12.9 | 0.00 | 0.00 | 0.00 | 52 | 986.1 |
| 20260508141114 | 16 | 249 | 4.8 | 12.9 | 0.00 | 0.00 | 0.00 | 52 | 986.3 |
| 20260508140615 | 16 | 225 | 3.2 | 12.9 | 0.00 | 0.00 | 0.00 | 52 | 986.4 |
| 20260508140115 | 15 | 216 | 6.4 | 16.1 | 0.00 | 0.00 | 0.00 | 51 | 986.4 |
| 20260508135615 | 15 | 207 | 4.8 | 11.3 | 0.00 | 0.00 | 0.00 | 52 | 986.5 |
| 20260508134115 | 14 | 206 | 4.8 | 12.9 | 0.00 | 0.00 | 0.00 | 55 | 986.6 |
| 20260508132615 | 13 | 239 | 4.8 | 9.7 | 0.00 | 0.00 | 0.00 | 62 | 986.6 |
| 20260508132114 | 13 | 196 | 4.8 | 9.7 | 0.00 | 0.00 | 0.00 | 62 | 986.7 |
| 20260508131115 | 12 | 196 | 3.2 | 8.0 | 0.00 | 0.00 | 0.00 | 64 | 986.8 |
| 20260508130115 | 11 | 179 | 4.8 | 9.7 | 0.00 | 0.00 | 0.00 | 68 | 986.8 |
| 20260508125615 | 11 | 161 | 6.4 | 11.3 | 0.00 | 0.00 | 0.00 | 67 | 986.8 |
| 20260508125114 | 11 | 162 | 6.4 | 9.7 | 0.00 | 0.00 | 0.00 | 69 | 986.8 |
| 20260508124614 | 10 | 159 | 8.0 | 9.7 | 0.00 | 0.00 | 0.00 | 70 | 986.8 |
| 20260508124115 | 10 | 151 | 6.4 | 9.7 | 0.00 | 0.00 | 0.00 | 72 | 986.8 |
| 20260508123615 | 10 | 164 | 4.8 | 8.0 | 0.00 | 0.00 | 0.00 | 72 | 986.9 |
| 20260508123115 | 9 | 157 | 8.0 | 9.7 | 0.00 | 0.00 | 0.00 | 72 | 986.8 |
| 20260508122615 | 9 | 153 | 4.8 | 8.0 | 0.00 | 0.00 | 0.00 | 72 | 986.7 |
| 20260508122115 | 8 | 154 | 6.4 | 8.0 | 0.00 | 0.00 | 0.00 | 73 | 986.7 |
| 20260508121615 | 8 | 151 | 6.4 | 8.0 | 0.00 | 0.00 | 0.00 | 74 | 986.7 |
| 20260508121115 | 8 | 153 | 4.8 | 8.0 | 0.00 | 0.00 | 0.00 | 76 | 986.7 |
| 20260508120115 | 7 | 151 | 4.8 | 8.0 | 0.00 | 0.00 | 0.00 | 78 | 986.7 |
| 20260508115615 | 7 | 158 | 4.8 | 8.0 | 0.00 | 0.00 | 0.00 | 79 | 986.8 |
| 20260508115114 | 7 | 164 | 3.2 | 4.8 | 0.00 | 0.00 | 0.00 | 81 | 986.8 |
| 20260508114614 | 7 | 149 | 4.8 | 8.0 | 0.00 | 0.00 | 0.00 | 82 | 986.8 |
| 20260508114115 | 7 | 156 | 4.8 | 8.0 | 0.00 | 0.00 | 0.00 | 82 | 986.8 |
| 20260508113615 | 7 | 154 | 4.8 | 8.0 | 0.00 | 0.00 | 0.00 | 81 | 986.7 |
| 20260508113115 | 7 | 155 | 4.8 | 8.0 | 0.00 | 0.00 | 0.00 | 79 | 986.6 |
| 20260508112614 | 7 | 158 | 4.8 | 8.0 | 0.00 | 0.00 | 0.00 | 78 | 986.6 |
| 20260508111615 | 8 | 163 | 3.2 | 4.8 | 0.00 | 0.00 | 0.00 | 73 | 986.5 |
| 20260508111114 | 7 | 177 | 0.0 | 1.6 | 0.00 | 0.00 | 0.00 | 75 | 986.6 |
| 20260508110614 | 7 | 177 | 0.0 | 0.0 | 0.00 | 0.00 | 0.00 | 74 | 986.6 |
| 20260508110115 | 8 | 177 | 0.0 | 0.0 | 0.00 | 0.00 | 0.00 | 74 | 986.6 |
| 20260508105615 | 8 | 177 | 0.0 | 0.0 | 0.00 | 0.00 | 0.00 | 74 | 986.4 |
| 20260508105115 | 8 | 177 | 0.0 | 4.8 | 0.00 | 0.00 | 0.00 | 75 | 986.2 |
| 20260508104615 | 8 | 162 | 3.2 | 8.0 | 0.00 | 0.00 | 0.00 | 74 | 986.1 |
| 20260508103615 | 8 | 167 | 4.8 | 4.8 | 0.00 | 0.00 | 0.00 | 74 | 986.2 |
| 20260508103115 | 7 | 166 | 1.6 | 3.2 | 0.00 | 0.00 | 0.00 | 75 | 986.2 |
| 20260508102615 | 7 | 165 | 0.0 | 3.2 | 0.00 | 0.00 | 0.00 | 76 | 986.2 |
| 20260508102115 | 7 | 174 | 0.0 | 1.6 | 0.00 | 0.00 | 0.00 | 77 | 986.3 |
| 20260508101614 | 7 | 253 | 1.6 | 4.8 | 0.00 | 0.00 | 0.00 | 77 | 986.3 |
| 20260508100614 | 7 | 164 | 4.8 | 4.8 | 0.00 | 0.00 | 0.00 | 76 | 986.2 |
| 20260508100114 | 7 | 164 | 3.2 | 4.8 | 0.00 | 0.00 | 0.00 | 76 | 986.2 |
| 20260508095615 | 7 | 164 | 3.2 | 4.8 | 0.00 | 0.00 | 0.00 | 76 | 986.2 |
| 20260508095115 | 7 | 163 | 4.8 | 4.8 | 0.00 | 0.00 | 0.00 | 75 | 986.2 |
| 20260508094615 | 7 | 172 | 4.8 | 8.0 | 0.00 | 0.00 | 0.00 | 74 | 986.2 |
| 20260508094115 | 7 | 204 | 0.0 | 1.6 | 0.00 | 0.00 | 0.00 | 73 | 986.3 |
| 20260508093615 | 7 | 244 | 0.0 | 1.6 | 0.00 | 0.00 | 0.00 | 73 | 986.3 |
| 20260508092615 | 7 | 189 | 0.0 | 0.0 | 0.00 | 0.00 | 0.00 | 76 | 986.3 |
| 20260508091614 | 7 | 183 | 0.0 | 3.2 | 0.00 | 0.00 | 0.00 | 76 | 986.3 |
| 20260508090614 | 7 | 172 | 3.2 | 4.8 | 0.00 | 0.00 | 0.00 | 75 | 986.3 |
| 20260508090114 | 7 | 174 | 1.6 | 3.2 | 0.00 | 0.00 | 0.00 | 76 | 986.3 |
| 20260508085615 | 7 | 184 | 1.6 | 3.2 | 0.00 | 0.00 | 0.00 | 77 | 986.3 |
| 20260508085115 | 7 | 192 | 0.0 | 1.6 | 0.00 | 0.00 | 0.00 | 76 | 986.3 |
| 20260508084114 | 6 | 269 | 0.0 | 1.6 | 0.00 | 0.00 | 0.00 | 75 | 986.3 |
| 20260508083115 | 6 | 178 | 0.0 | 3.2 | 0.00 | 0.00 | 0.00 | 75 | 986.3 |
| 20260508082615 | 6 | 277 | 0.0 | 1.6 | 0.00 | 0.00 | 0.00 | 74 | 986.4 |
| 20260508082114 | 7 | 276 | 0.0 | 0.0 | 0.00 | 0.00 | 0.00 | 74 | 986.5 |
| 20260508081114 | 6 | 300 | 0.0 | 1.6 | 0.00 | 0.00 | 0.00 | 75 | 986.3 |
| 20260508080614 | 6 | 260 | 1.6 | 3.2 | 0.00 | 0.00 | 0.00 | 76 | 986.3 |
| 20260508080114 | 6 | 281 | 0.0 | 0.0 | 0.00 | 0.00 | 0.00 | 76 | 986.4 |
| 20260508075614 | 6 | 313 | 0.0 | 1.6 | 0.00 | 0.00 | 0.00 | 77 | 986.5 |
| 20260508075115 | 6 | 183 | 0.0 | 0.0 | 0.00 | 0.00 | 0.00 | 78 | 986.5 |
| 20260508074615 | 6 | 183 | 0.0 | 0.0 | 0.00 | 0.00 | 0.00 | 76 | 986.5 |
| 20260508074114 | 6 | 183 | 0.0 | 0.0 | 0.00 | 0.00 | 0.00 | 76 | 986.4 |
| 20260508073614 | 7 | 183 | 0.0 | 1.6 | 0.00 | 0.00 | 0.00 | 75 | 986.4 |
| 20260508073114 | 7 | 173 | 0.0 | 4.8 | 0.00 | 0.00 | 0.00 | 74 | 986.4 |
| 20260508072614 | 7 | 173 | 3.2 | 4.8 | 0.00 | 0.00 | 0.00 | 73 | 986.3 |
| 20260508072114 | 7 | 181 | 0.0 | 4.8 | 0.00 | 0.00 | 0.00 | 70 | 986.4 |
| 20260508071614 | 7 | 246 | 0.0 | 1.6 | 0.00 | 0.00 | 0.00 | 70 | 986.4 |
| 20260508071114 | 7 | 278 | 0.0 | 3.2 | 0.00 | 0.00 | 0.00 | 70 | 986.5 |
| 20260508070114 | 7 | 218 | 0.0 | 1.6 | 0.00 | 0.00 | 0.00 | 69 | 986.6 |
| 20260508065614 | 7 | 275 | 0.0 | 1.6 | 0.00 | 0.00 | 0.00 | 69 | 986.7 |
| 20260508064615 | 7 | 293 | 0.0 | 3.2 | 0.00 | 0.00 | 0.00 | 72 | 986.8 |
| 20260508063614 | 7 | 294 | 0.0 | 1.6 | 0.00 | 0.00 | 0.00 | 72 | 986.9 |
| 20260508063115 | 7 | 219 | 0.0 | 0.0 | 0.00 | 0.00 | 0.00 | 72 | 986.9 |
| 20260508062615 | 7 | 219 | 0.0 | 1.6 | 0.00 | 0.00 | 0.00 | 72 | 986.9 |
| 20260508062115 | 7 | 201 | 0.0 | 1.6 | 0.00 | 0.00 | 0.00 | 73 | 987.0 |
| 20260508061615 | 7 | 258 | 0.0 | 3.2 | 0.00 | 0.00 | 0.00 | 73 | 987.1 |
| 20260508061114 | 7 | 244 | 0.0 | 3.2 | 0.00 | 0.00 | 0.00 | 71 | 987.2 |
| 20260508060614 | 7 | 232 | 0.0 | 1.6 | 0.00 | 0.00 | 0.00 | 72 | 987.2 |
| 20260508060114 | 7 | 182 | 0.0 | 1.6 | 0.00 | 0.00 | 0.00 | 70 | 987.2 |
| 20260508055614 | 7 | 245 | 0.0 | 3.2 | 0.00 | 0.00 | 0.00 | 69 | 987.3 |
| 20260508055114 | 7 | 303 | 0.0 | 3.2 | 0.00 | 0.00 | 0.00 | 69 | 987.2 |
| 20260508054614 | 7 | 267 | 1.6 | 3.2 | 0.00 | 0.00 | 0.00 | 68 | 987.2 |
| 20260508054115 | 7 | 260 | 0.0 | 3.2 | 0.00 | 0.00 | 0.00 | 69 | 987.2 |
| 20260508053614 | 7 | 245 | 0.0 | 1.6 | 0.00 | 0.00 | 0.00 | 68 | 987.2 |
| 20260508053114 | 7 | 262 | 0.0 | 1.6 | 0.00 | 0.00 | 0.00 | 68 | 987.2 |
| 20260508052614 | 8 | 192 | 0.0 | 3.2 | 0.00 | 0.00 | 0.00 | 68 | 987.2 |
| 20260508052114 | 8 | 261 | 1.6 | 3.2 | 0.00 | 0.00 | 0.00 | 68 | 987.1 |
| 20260508051614 | 8 | 289 | 0.0 | 1.6 | 0.00 | 0.00 | 0.00 | 68 | 987.2 |
| 20260508051114 | 8 | 235 | 0.0 | 0.0 | 0.00 | 0.00 | 0.00 | 68 | 987.2 |
| 20260508050614 | 8 | 235 | 0.0 | 0.0 | 0.00 | 0.00 | 0.00 | 67 | 987.2 |
| 20260508050114 | 8 | 235 | 0.0 | 3.2 | 0.00 | 0.00 | 0.00 | 65 | 987.2 |
| 20260508045614 | 8 | 260 | 0.0 | 4.8 | 0.00 | 0.00 | 0.00 | 64 | 987.2 |